sensor_id;sensor_type;location;lat;lon;timestamp;P1;durP1;ratioP1;P2;durP2;ratioP2
37273;SDS011;23161;51.250;5.554;2022-10-31T00:02:24;13.23;;;10.38;;
37273;SDS011;23161;51.250;5.554;2022-10-31T00:04:50;10.38;;;8.73;;
37273;SDS011;23161;51.250;5.554;2022-10-31T00:07:16;16.23;;;10.70;;
37273;SDS011;23161;51.250;5.554;2022-10-31T00:09:42;21.13;;;10.63;;
37273;SDS011;23161;51.250;5.554;2022-10-31T00:12:08;15.88;;;11.88;;
37273;SDS011;23161;51.250;5.554;2022-10-31T00:14:33;15.63;;;12.90;;
37273;SDS011;23161;51.250;5.554;2022-10-31T00:16:59;18.88;;;13.07;;
37273;SDS011;23161;51.250;5.554;2022-10-31T00:19:25;16.58;;;10.40;;
37273;SDS011;23161;51.250;5.554;2022-10-31T00:21:53;14.10;;;11.63;;
37273;SDS011;23161;51.250;5.554;2022-10-31T00:24:19;18.13;;;12.43;;
37273;SDS011;23161;51.250;5.554;2022-10-31T00:26:45;17.73;;;13.25;;
37273;SDS011;23161;51.250;5.554;2022-10-31T00:29:11;14.77;;;11.45;;
37273;SDS011;23161;51.250;5.554;2022-10-31T00:31:38;16.80;;;11.65;;
37273;SDS011;23161;51.250;5.554;2022-10-31T00:34:03;20.98;;;13.43;;
37273;SDS011;23161;51.250;5.554;2022-10-31T00:36:29;15.70;;;11.40;;
37273;SDS011;23161;51.250;5.554;2022-10-31T00:38:55;15.73;;;10.75;;
37273;SDS011;23161;51.250;5.554;2022-10-31T00:41:23;13.25;;;9.07;;
37273;SDS011;23161;51.250;5.554;2022-10-31T00:43:49;13.80;;;8.65;;
37273;SDS011;23161;51.250;5.554;2022-10-31T00:46:16;16.08;;;11.57;;
37273;SDS011;23161;51.250;5.554;2022-10-31T00:48:41;15.48;;;10.50;;
37273;SDS011;23161;51.250;5.554;2022-10-31T00:51:07;23.33;;;11.85;;
37273;SDS011;23161;51.250;5.554;2022-10-31T00:53:34;18.38;;;11.60;;
37273;SDS011;23161;51.250;5.554;2022-10-31T00:56:00;14.57;;;11.45;;
37273;SDS011;23161;51.250;5.554;2022-10-31T00:58:26;12.38;;;11.07;;
37273;SDS011;23161;51.250;5.554;2022-10-31T01:00:51;21.55;;;11.45;;
37273;SDS011;23161;51.250;5.554;2022-10-31T01:03:21;20.40;;;13.35;;
37273;SDS011;23161;51.250;5.554;2022-10-31T01:08:25;16.98;;;12.75;;
37273;SDS011;23161;51.250;5.554;2022-10-31T01:10:58;20.33;;;13.43;;
37273;SDS011;23161;51.250;5.554;2022-10-31T01:13:31;15.60;;;12.65;;
37273;SDS011;23161;51.250;5.554;2022-10-31T01:15:58;18.63;;;14.70;;
37273;SDS011;23161;51.250;5.554;2022-10-31T01:18:25;14.82;;;13.40;;
37273;SDS011;23161;51.250;5.554;2022-10-31T01:20:59;18.52;;;11.90;;
37273;SDS011;23161;51.250;5.554;2022-10-31T01:23:26;16.52;;;13.35;;
37273;SDS011;23161;51.250;5.554;2022-10-31T01:25:59;15.25;;;12.70;;
37273;SDS011;23161;51.250;5.554;2022-10-31T01:28:31;12.77;;;11.45;;
37273;SDS011;23161;51.250;5.554;2022-10-31T01:31:01;14.75;;;12.70;;
37273;SDS011;23161;51.250;5.554;2022-10-31T01:33:33;15.15;;;13.63;;
37273;SDS011;23161;51.250;5.554;2022-10-31T01:35:59;25.10;;;14.93;;
37273;SDS011;23161;51.250;5.554;2022-10-31T01:38:25;21.05;;;15.70;;
37273;SDS011;23161;51.250;5.554;2022-10-31T01:40:51;24.20;;;13.52;;
37273;SDS011;23161;51.250;5.554;2022-10-31T01:43:18;16.00;;;14.48;;
37273;SDS011;23161;51.250;5.554;2022-10-31T01:45:46;24.38;;;14.63;;
37273;SDS011;23161;51.250;5.554;2022-10-31T01:48:17;17.95;;;13.50;;
37273;SDS011;23161;51.250;5.554;2022-10-31T01:50:45;35.85;;;13.73;;
37273;SDS011;23161;51.250;5.554;2022-10-31T01:53:13;21.83;;;15.18;;
37273;SDS011;23161;51.250;5.554;2022-10-31T01:55:42;16.00;;;12.23;;
37273;SDS011;23161;51.250;5.554;2022-10-31T01:58:18;28.83;;;14.70;;
37273;SDS011;23161;51.250;5.554;2022-10-31T02:00:49;18.88;;;13.98;;
37273;SDS011;23161;51.250;5.554;2022-10-31T02:03:19;25.17;;;14.23;;
37273;SDS011;23161;51.250;5.554;2022-10-31T02:05:46;21.67;;;16.45;;
37273;SDS011;23161;51.250;5.554;2022-10-31T02:10:52;27.45;;;16.83;;
37273;SDS011;23161;51.250;5.554;2022-10-31T02:13:19;17.67;;;15.27;;
37273;SDS011;23161;51.250;5.554;2022-10-31T02:15:49;24.27;;;15.63;;
37273;SDS011;23161;51.250;5.554;2022-10-31T02:18:18;17.38;;;14.93;;
37273;SDS011;23161;51.250;5.554;2022-10-31T02:26:30;19.25;;;15.20;;
37273;SDS011;23161;51.250;5.554;2022-10-31T02:32:00;22.77;;;15.15;;
37273;SDS011;23161;51.250;5.554;2022-10-31T02:42:56;21.40;;;13.93;;
37273;SDS011;23161;51.250;5.554;2022-10-31T02:45:30;23.92;;;15.38;;
37273;SDS011;23161;51.250;5.554;2022-10-31T02:48:12;20.42;;;16.90;;
37273;SDS011;23161;51.250;5.554;2022-10-31T02:50:47;20.77;;;16.13;;
37273;SDS011;23161;51.250;5.554;2022-10-31T02:53:19;20.25;;;16.92;;
37273;SDS011;23161;51.250;5.554;2022-10-31T02:58:22;21.33;;;14.68;;
37273;SDS011;23161;51.250;5.554;2022-10-31T03:03:53;20.67;;;15.75;;
37273;SDS011;23161;51.250;5.554;2022-10-31T03:11:42;17.67;;;15.75;;
37273;SDS011;23161;51.250;5.554;2022-10-31T03:14:26;20.33;;;14.35;;
37273;SDS011;23161;51.250;5.554;2022-10-31T03:17:02;18.15;;;14.63;;
37273;SDS011;23161;51.250;5.554;2022-10-31T03:19:33;17.60;;;13.77;;
37273;SDS011;23161;51.250;5.554;2022-10-31T03:22:06;16.83;;;14.18;;
37273;SDS011;23161;51.250;5.554;2022-10-31T03:24:39;22.13;;;15.50;;
37273;SDS011;23161;51.250;5.554;2022-10-31T03:27:07;23.10;;;14.95;;
37273;SDS011;23161;51.250;5.554;2022-10-31T03:29:36;20.65;;;13.07;;
37273;SDS011;23161;51.250;5.554;2022-10-31T03:34:33;13.52;;;11.40;;
37273;SDS011;23161;51.250;5.554;2022-10-31T03:37:02;14.52;;;12.50;;
37273;SDS011;23161;51.250;5.554;2022-10-31T03:39:30;14.63;;;13.07;;
37273;SDS011;23161;51.250;5.554;2022-10-31T03:42:11;19.58;;;12.40;;
37273;SDS011;23161;51.250;5.554;2022-10-31T03:44:46;13.73;;;12.27;;
37273;SDS011;23161;51.250;5.554;2022-10-31T03:47:17;18.75;;;13.98;;
37273;SDS011;23161;51.250;5.554;2022-10-31T03:49:47;21.73;;;16.37;;
37273;SDS011;23161;51.250;5.554;2022-10-31T03:55:04;16.52;;;14.23;;
37273;SDS011;23161;51.250;5.554;2022-10-31T03:57:45;18.75;;;14.23;;
37273;SDS011;23161;51.250;5.554;2022-10-31T04:00:18;17.27;;;12.43;;
37273;SDS011;23161;51.250;5.554;2022-10-31T04:08:13;15.38;;;13.32;;
37273;SDS011;23161;51.250;5.554;2022-10-31T04:10:46;14.18;;;12.88;;
37273;SDS011;23161;51.250;5.554;2022-10-31T04:13:16;16.25;;;12.88;;
37273;SDS011;23161;51.250;5.554;2022-10-31T04:15:55;20.38;;;13.20;;
37273;SDS011;23161;51.250;5.554;2022-10-31T04:18:22;24.92;;;16.70;;
37273;SDS011;23161;51.250;5.554;2022-10-31T04:20:48;17.52;;;12.65;;
37273;SDS011;23161;51.250;5.554;2022-10-31T04:23:19;17.83;;;15.18;;
37273;SDS011;23161;51.250;5.554;2022-10-31T04:25:48;19.17;;;15.38;;
37273;SDS011;23161;51.250;5.554;2022-10-31T04:28:15;16.33;;;14.60;;
37273;SDS011;23161;51.250;5.554;2022-10-31T04:30:42;18.48;;;14.73;;
37273;SDS011;23161;51.250;5.554;2022-10-31T04:33:08;19.60;;;14.52;;
37273;SDS011;23161;51.250;5.554;2022-10-31T04:35:34;16.80;;;13.90;;
37273;SDS011;23161;51.250;5.554;2022-10-31T04:37:59;24.38;;;15.68;;
37273;SDS011;23161;51.250;5.554;2022-10-31T04:40:25;16.52;;;14.77;;
37273;SDS011;23161;51.250;5.554;2022-10-31T04:43:14;18.95;;;13.07;;
37273;SDS011;23161;51.250;5.554;2022-10-31T04:45:42;18.73;;;14.50;;
37273;SDS011;23161;51.250;5.554;2022-10-31T04:48:08;17.95;;;14.25;;
37273;SDS011;23161;51.250;5.554;2022-10-31T04:50:35;19.73;;;15.00;;
37273;SDS011;23161;51.250;5.554;2022-10-31T04:53:01;14.32;;;12.95;;
37273;SDS011;23161;51.250;5.554;2022-10-31T04:55:32;16.98;;;13.60;;
37273;SDS011;23161;51.250;5.554;2022-10-31T04:58:19;12.70;;;10.98;;
37273;SDS011;23161;51.250;5.554;2022-10-31T05:00:45;13.65;;;11.90;;
37273;SDS011;23161;51.250;5.554;2022-10-31T05:03:11;16.08;;;10.73;;
37273;SDS011;23161;51.250;5.554;2022-10-31T05:05:37;15.35;;;12.30;;
37273;SDS011;23161;51.250;5.554;2022-10-31T05:08:03;23.17;;;12.63;;
37273;SDS011;23161;51.250;5.554;2022-10-31T05:10:30;17.30;;;15.35;;
37273;SDS011;23161;51.250;5.554;2022-10-31T05:12:59;15.45;;;12.95;;
37273;SDS011;23161;51.250;5.554;2022-10-31T05:15:56;20.95;;;15.68;;
37273;SDS011;23161;51.250;5.554;2022-10-31T05:18:40;18.05;;;14.35;;
37273;SDS011;23161;51.250;5.554;2022-10-31T05:21:12;20.30;;;15.40;;
37273;SDS011;23161;51.250;5.554;2022-10-31T05:23:46;20.98;;;14.77;;
37273;SDS011;23161;51.250;5.554;2022-10-31T05:26:13;15.38;;;13.13;;
37273;SDS011;23161;51.250;5.554;2022-10-31T05:28:39;16.05;;;13.48;;
37273;SDS011;23161;51.250;5.554;2022-10-31T05:31:05;20.92;;;14.05;;
37273;SDS011;23161;51.250;5.554;2022-10-31T05:33:31;15.32;;;13.45;;
37273;SDS011;23161;51.250;5.554;2022-10-31T05:36:15;15.05;;;12.15;;
37273;SDS011;23161;51.250;5.554;2022-10-31T05:39:02;15.18;;;12.85;;
37273;SDS011;23161;51.250;5.554;2022-10-31T05:41:48;14.82;;;12.85;;
37273;SDS011;23161;51.250;5.554;2022-10-31T05:44:19;21.08;;;15.13;;
37273;SDS011;23161;51.250;5.554;2022-10-31T05:47:04;13.88;;;12.65;;
37273;SDS011;23161;51.250;5.554;2022-10-31T05:49:49;21.23;;;16.33;;
37273;SDS011;23161;51.250;5.554;2022-10-31T05:52:33;16.20;;;13.65;;
37273;SDS011;23161;51.250;5.554;2022-10-31T05:55:07;26.58;;;11.88;;
37273;SDS011;23161;51.250;5.554;2022-10-31T05:57:34;31.10;;;11.43;;
37273;SDS011;23161;51.250;5.554;2022-10-31T06:00:00;24.50;;;10.68;;
37273;SDS011;23161;51.250;5.554;2022-10-31T06:02:26;10.90;;;9.05;;
37273;SDS011;23161;51.250;5.554;2022-10-31T06:05:15;26.37;;;9.93;;
37273;SDS011;23161;51.250;5.554;2022-10-31T06:07:41;12.82;;;11.63;;
37273;SDS011;23161;51.250;5.554;2022-10-31T06:10:08;14.32;;;11.23;;
37273;SDS011;23161;51.250;5.554;2022-10-31T06:12:35;20.27;;;12.07;;
37273;SDS011;23161;51.250;5.554;2022-10-31T06:15:19;20.35;;;9.98;;
37273;SDS011;23161;51.250;5.554;2022-10-31T06:17:45;11.90;;;9.90;;
37273;SDS011;23161;51.250;5.554;2022-10-31T06:20:23;11.55;;;10.30;;
37273;SDS011;23161;51.250;5.554;2022-10-31T06:23:02;14.10;;;11.50;;
37273;SDS011;23161;51.250;5.554;2022-10-31T06:25:30;10.55;;;9.48;;
37273;SDS011;23161;51.250;5.554;2022-10-31T06:27:58;12.95;;;10.55;;
37273;SDS011;23161;51.250;5.554;2022-10-31T06:30:30;15.80;;;13.10;;
37273;SDS011;23161;51.250;5.554;2022-10-31T06:33:05;18.30;;;12.75;;
37273;SDS011;23161;51.250;5.554;2022-10-31T06:35:34;15.82;;;12.70;;
37273;SDS011;23161;51.250;5.554;2022-10-31T06:38:00;39.72;;;16.88;;
37273;SDS011;23161;51.250;5.554;2022-10-31T06:40:35;38.63;;;14.85;;
37273;SDS011;23161;51.250;5.554;2022-10-31T06:43:14;24.75;;;13.45;;
37273;SDS011;23161;51.250;5.554;2022-10-31T06:45:41;35.35;;;14.35;;
37273;SDS011;23161;51.250;5.554;2022-10-31T06:48:15;22.50;;;13.00;;
37273;SDS011;23161;51.250;5.554;2022-10-31T06:51:01;50.53;;;20.42;;
37273;SDS011;23161;51.250;5.554;2022-10-31T06:53:27;78.82;;;20.92;;
37273;SDS011;23161;51.250;5.554;2022-10-31T06:55:56;30.63;;;18.05;;
37273;SDS011;23161;51.250;5.554;2022-10-31T06:58:22;39.90;;;17.50;;
37273;SDS011;23161;51.250;5.554;2022-10-31T07:00:49;30.27;;;16.20;;
37273;SDS011;23161;51.250;5.554;2022-10-31T07:03:15;37.25;;;17.75;;
37273;SDS011;23161;51.250;5.554;2022-10-31T07:05:42;27.73;;;15.68;;
37273;SDS011;23161;51.250;5.554;2022-10-31T07:08:10;30.65;;;15.98;;
37273;SDS011;23161;51.250;5.554;2022-10-31T07:10:37;42.88;;;17.27;;
37273;SDS011;23161;51.250;5.554;2022-10-31T07:13:05;41.63;;;16.95;;
37273;SDS011;23161;51.250;5.554;2022-10-31T07:15:35;41.97;;;18.70;;
37273;SDS011;23161;51.250;5.554;2022-10-31T07:18:03;23.15;;;14.75;;
37273;SDS011;23161;51.250;5.554;2022-10-31T07:20:32;23.75;;;15.98;;
37273;SDS011;23161;51.250;5.554;2022-10-31T07:22:59;30.35;;;16.48;;
37273;SDS011;23161;51.250;5.554;2022-10-31T07:25:26;29.55;;;18.45;;
37273;SDS011;23161;51.250;5.554;2022-10-31T07:30:59;23.52;;;16.48;;
37273;SDS011;23161;51.250;5.554;2022-10-31T07:33:25;18.52;;;13.15;;
37273;SDS011;23161;51.250;5.554;2022-10-31T07:36:27;15.60;;;14.05;;
37273;SDS011;23161;51.250;5.554;2022-10-31T07:38:57;17.30;;;14.93;;
37273;SDS011;23161;51.250;5.554;2022-10-31T07:41:24;26.38;;;12.93;;
37273;SDS011;23161;51.250;5.554;2022-10-31T07:43:50;19.58;;;15.10;;
37273;SDS011;23161;51.250;5.554;2022-10-31T07:46:15;15.68;;;11.60;;
37273;SDS011;23161;51.250;5.554;2022-10-31T07:49:13;16.30;;;12.60;;
37273;SDS011;23161;51.250;5.554;2022-10-31T07:52:02;12.90;;;11.68;;
37273;SDS011;23161;51.250;5.554;2022-10-31T07:54:46;14.43;;;12.85;;
37273;SDS011;23161;51.250;5.554;2022-10-31T07:57:11;15.25;;;13.02;;
37273;SDS011;23161;51.250;5.554;2022-10-31T07:59:38;13.10;;;11.30;;
37273;SDS011;23161;51.250;5.554;2022-10-31T08:02:07;11.98;;;10.88;;
37273;SDS011;23161;51.250;5.554;2022-10-31T08:04:45;15.40;;;11.57;;
37273;SDS011;23161;51.250;5.554;2022-10-31T08:07:43;12.07;;;9.35;;
37273;SDS011;23161;51.250;5.554;2022-10-31T08:10:16;11.88;;;10.88;;
37273;SDS011;23161;51.250;5.554;2022-10-31T08:12:42;10.95;;;9.82;;
37273;SDS011;23161;51.250;5.554;2022-10-31T08:15:08;11.18;;;10.00;;
37273;SDS011;23161;51.250;5.554;2022-10-31T08:17:35;12.90;;;11.60;;
37273;SDS011;23161;51.250;5.554;2022-10-31T08:20:01;11.27;;;10.27;;
37273;SDS011;23161;51.250;5.554;2022-10-31T08:22:33;12.80;;;11.52;;
37273;SDS011;23161;51.250;5.554;2022-10-31T08:25:00;12.63;;;11.10;;
37273;SDS011;23161;51.250;5.554;2022-10-31T08:27:26;14.10;;;12.73;;
37273;SDS011;23161;51.250;5.554;2022-10-31T08:29:54;11.10;;;9.90;;
37273;SDS011;23161;51.250;5.554;2022-10-31T08:32:21;16.58;;;13.05;;
37273;SDS011;23161;51.250;5.554;2022-10-31T08:35:05;19.88;;;13.75;;
37273;SDS011;23161;51.250;5.554;2022-10-31T08:37:53;14.82;;;13.18;;
37273;SDS011;23161;51.250;5.554;2022-10-31T08:40:23;17.20;;;13.40;;
37273;SDS011;23161;51.250;5.554;2022-10-31T08:43:00;21.02;;;16.83;;
37273;SDS011;23161;51.250;5.554;2022-10-31T08:45:31;20.23;;;16.73;;
37273;SDS011;23161;51.250;5.554;2022-10-31T08:48:00;28.92;;;17.25;;
37273;SDS011;23161;51.250;5.554;2022-10-31T08:50:28;18.70;;;16.77;;
37273;SDS011;23161;51.250;5.554;2022-10-31T08:53:11;20.17;;;16.85;;
37273;SDS011;23161;51.250;5.554;2022-10-31T08:55:40;28.88;;;15.23;;
37273;SDS011;23161;51.250;5.554;2022-10-31T08:58:21;20.20;;;16.58;;
37273;SDS011;23161;51.250;5.554;2022-10-31T09:03:20;38.72;;;15.02;;
37273;SDS011;23161;51.250;5.554;2022-10-31T09:05:54;29.38;;;18.05;;
37273;SDS011;23161;51.250;5.554;2022-10-31T09:08:21;18.23;;;14.60;;
37273;SDS011;23161;51.250;5.554;2022-10-31T09:10:47;21.48;;;14.98;;
37273;SDS011;23161;51.250;5.554;2022-10-31T09:16:20;16.45;;;13.50;;
37273;SDS011;23161;51.250;5.554;2022-10-31T09:18:46;21.75;;;16.05;;
37273;SDS011;23161;51.250;5.554;2022-10-31T09:21:15;24.58;;;17.20;;
37273;SDS011;23161;51.250;5.554;2022-10-31T09:23:43;19.52;;;14.90;;
37273;SDS011;23161;51.250;5.554;2022-10-31T09:26:10;20.63;;;17.08;;
37273;SDS011;23161;51.250;5.554;2022-10-31T09:28:37;22.17;;;17.50;;
37273;SDS011;23161;51.250;5.554;2022-10-31T09:31:08;23.88;;;17.48;;
37273;SDS011;23161;51.250;5.554;2022-10-31T09:33:52;29.40;;;19.55;;
37273;SDS011;23161;51.250;5.554;2022-10-31T09:36:39;29.10;;;19.70;;
37273;SDS011;23161;51.250;5.554;2022-10-31T09:39:10;25.63;;;20.38;;
37273;SDS011;23161;51.250;5.554;2022-10-31T09:44:28;34.10;;;21.55;;
37273;SDS011;23161;51.250;5.554;2022-10-31T09:50:19;24.75;;;19.60;;
37273;SDS011;23161;51.250;5.554;2022-10-31T09:52:54;26.75;;;21.63;;
37273;SDS011;23161;51.250;5.554;2022-10-31T09:55:50;31.52;;;18.67;;
37273;SDS011;23161;51.250;5.554;2022-10-31T09:58:19;30.42;;;23.17;;
37273;SDS011;23161;51.250;5.554;2022-10-31T10:00:49;38.13;;;21.92;;
37273;SDS011;23161;51.250;5.554;2022-10-31T10:06:24;31.35;;;20.50;;
37273;SDS011;23161;51.250;5.554;2022-10-31T10:09:12;28.35;;;20.83;;
37273;SDS011;23161;51.250;5.554;2022-10-31T10:12:12;24.13;;;20.38;;
37273;SDS011;23161;51.250;5.554;2022-10-31T10:17:37;32.05;;;20.65;;
37273;SDS011;23161;51.250;5.554;2022-10-31T10:22:54;30.63;;;21.02;;
37273;SDS011;23161;51.250;5.554;2022-10-31T10:25:39;30.70;;;20.60;;
37273;SDS011;23161;51.250;5.554;2022-10-31T10:28:13;27.77;;;20.63;;
37273;SDS011;23161;51.250;5.554;2022-10-31T10:30:47;34.00;;;23.83;;
37273;SDS011;23161;51.250;5.554;2022-10-31T10:33:15;38.95;;;26.13;;
37273;SDS011;23161;51.250;5.554;2022-10-31T10:36:03;32.15;;;22.48;;
37273;SDS011;23161;51.250;5.554;2022-10-31T10:41:16;33.95;;;21.67;;
37273;SDS011;23161;51.250;5.554;2022-10-31T10:43:44;34.20;;;24.48;;
37273;SDS011;23161;51.250;5.554;2022-10-31T10:56:49;36.85;;;24.27;;
37273;SDS011;23161;51.250;5.554;2022-10-31T10:59:33;58.85;;;24.40;;
37273;SDS011;23161;51.250;5.554;2022-10-31T11:02:00;28.50;;;23.55;;
37273;SDS011;23161;51.250;5.554;2022-10-31T11:06:57;36.50;;;24.15;;
37273;SDS011;23161;51.250;5.554;2022-10-31T11:09:30;35.35;;;23.23;;
37273;SDS011;23161;51.250;5.554;2022-10-31T11:11:56;32.13;;;21.42;;
37273;SDS011;23161;51.250;5.554;2022-10-31T11:14:23;30.05;;;21.73;;
37273;SDS011;23161;51.250;5.554;2022-10-31T11:16:54;28.80;;;20.60;;
37273;SDS011;23161;51.250;5.554;2022-10-31T11:19:32;30.83;;;21.58;;
37273;SDS011;23161;51.250;5.554;2022-10-31T11:22:14;23.17;;;19.83;;
37273;SDS011;23161;51.250;5.554;2022-10-31T11:24:41;29.25;;;20.85;;
37273;SDS011;23161;51.250;5.554;2022-10-31T11:27:13;31.40;;;20.95;;
37273;SDS011;23161;51.250;5.554;2022-10-31T11:29:41;32.28;;;19.92;;
37273;SDS011;23161;51.250;5.554;2022-10-31T11:32:14;32.80;;;18.20;;
37273;SDS011;23161;51.250;5.554;2022-10-31T11:34:46;32.75;;;18.55;;
37273;SDS011;23161;51.250;5.554;2022-10-31T11:37:19;25.30;;;19.23;;
37273;SDS011;23161;51.250;5.554;2022-10-31T11:39:55;27.23;;;18.70;;
37273;SDS011;23161;51.250;5.554;2022-10-31T11:42:26;24.75;;;18.55;;
37273;SDS011;23161;51.250;5.554;2022-10-31T11:44:55;22.02;;;18.75;;
37273;SDS011;23161;51.250;5.554;2022-10-31T11:47:24;23.17;;;18.75;;
37273;SDS011;23161;51.250;5.554;2022-10-31T11:49:55;20.35;;;18.23;;
37273;SDS011;23161;51.250;5.554;2022-10-31T11:52:26;26.85;;;17.98;;
37273;SDS011;23161;51.250;5.554;2022-10-31T11:54:59;22.67;;;16.45;;
37273;SDS011;23161;51.250;5.554;2022-10-31T11:57:29;34.67;;;17.05;;
37273;SDS011;23161;51.250;5.554;2022-10-31T11:59:58;22.58;;;18.80;;
37273;SDS011;23161;51.250;5.554;2022-10-31T12:02:26;19.25;;;16.50;;
37273;SDS011;23161;51.250;5.554;2022-10-31T12:07:31;29.35;;;16.63;;
37273;SDS011;23161;51.250;5.554;2022-10-31T12:09:57;26.17;;;17.48;;
37273;SDS011;23161;51.250;5.554;2022-10-31T12:12:30;19.50;;;15.73;;
37273;SDS011;23161;51.250;5.554;2022-10-31T12:23:06;21.33;;;14.77;;
37273;SDS011;23161;51.250;5.554;2022-10-31T12:28:18;19.00;;;13.50;;
37273;SDS011;23161;51.250;5.554;2022-10-31T12:39:44;64.82;;;21.23;;
37273;SDS011;23161;51.250;5.554;2022-10-31T13:05:05;18.55;;;10.75;;
37273;SDS011;23161;51.250;5.554;2022-10-31T13:07:49;18.75;;;11.80;;
37273;SDS011;23161;51.250;5.554;2022-10-31T13:13:40;26.23;;;11.63;;
37273;SDS011;23161;51.250;5.554;2022-10-31T13:16:14;20.17;;;10.57;;
37273;SDS011;23161;51.250;5.554;2022-10-31T13:21:25;13.90;;;9.93;;
37273;SDS011;23161;51.250;5.554;2022-10-31T13:23:56;12.90;;;9.55;;
37273;SDS011;23161;51.250;5.554;2022-10-31T13:26:47;20.05;;;10.52;;
37273;SDS011;23161;51.250;5.554;2022-10-31T13:29:23;13.75;;;8.52;;
37273;SDS011;23161;51.250;5.554;2022-10-31T13:32:05;29.85;;;10.80;;
37273;SDS011;23161;51.250;5.554;2022-10-31T13:34:36;18.30;;;9.88;;
37273;SDS011;23161;51.250;5.554;2022-10-31T13:37:09;17.80;;;8.02;;
37273;SDS011;23161;51.250;5.554;2022-10-31T13:39:49;16.70;;;8.52;;
37273;SDS011;23161;51.250;5.554;2022-10-31T13:42:51;25.38;;;8.45;;
37273;SDS011;23161;51.250;5.554;2022-10-31T13:45:30;17.48;;;9.73;;
37273;SDS011;23161;51.250;5.554;2022-10-31T13:47:57;16.35;;;8.95;;
37273;SDS011;23161;51.250;5.554;2022-10-31T13:50:28;30.08;;;12.32;;
37273;SDS011;23161;51.250;5.554;2022-10-31T13:55:46;17.73;;;10.47;;
37273;SDS011;23161;51.250;5.554;2022-10-31T13:58:27;18.70;;;10.15;;
37273;SDS011;23161;51.250;5.554;2022-10-31T14:01:15;20.55;;;10.43;;
37273;SDS011;23161;51.250;5.554;2022-10-31T14:03:43;13.85;;;9.88;;
37273;SDS011;23161;51.250;5.554;2022-10-31T14:06:11;14.95;;;9.40;;
37273;SDS011;23161;51.250;5.554;2022-10-31T14:08:41;14.88;;;12.23;;
37273;SDS011;23161;51.250;5.554;2022-10-31T14:11:24;16.27;;;11.18;;
37273;SDS011;23161;51.250;5.554;2022-10-31T14:13:52;14.43;;;10.52;;
37273;SDS011;23161;51.250;5.554;2022-10-31T14:16:23;15.23;;;9.02;;
37273;SDS011;23161;51.250;5.554;2022-10-31T14:18:56;17.38;;;9.55;;
37273;SDS011;23161;51.250;5.554;2022-10-31T14:21:31;21.23;;;8.53;;
37273;SDS011;23161;51.250;5.554;2022-10-31T14:24:14;10.13;;;8.07;;
37273;SDS011;23161;51.250;5.554;2022-10-31T14:26:50;17.85;;;10.45;;
37273;SDS011;23161;51.250;5.554;2022-10-31T14:55:54;17.35;;;9.50;;
37273;SDS011;23161;51.250;5.554;2022-10-31T14:59:04;14.50;;;8.52;;
37273;SDS011;23161;51.250;5.554;2022-10-31T15:01:31;19.27;;;9.07;;
37273;SDS011;23161;51.250;5.554;2022-10-31T15:06:40;12.88;;;7.65;;
37273;SDS011;23161;51.250;5.554;2022-10-31T15:09:20;16.35;;;7.57;;
37273;SDS011;23161;51.250;5.554;2022-10-31T15:11:49;12.63;;;8.20;;
37273;SDS011;23161;51.250;5.554;2022-10-31T15:16:49;10.43;;;6.78;;
37273;SDS011;23161;51.250;5.554;2022-10-31T15:19:20;15.00;;;7.25;;
37273;SDS011;23161;51.250;5.554;2022-10-31T15:21:49;53.15;;;34.25;;
37273;SDS011;23161;51.250;5.554;2022-10-31T15:24:17;15.90;;;8.57;;
37273;SDS011;23161;51.250;5.554;2022-10-31T15:26:53;22.65;;;11.05;;
37273;SDS011;23161;51.250;5.554;2022-10-31T15:29:23;16.50;;;11.05;;
37273;SDS011;23161;51.250;5.554;2022-10-31T15:31:51;9.10;;;7.13;;
37273;SDS011;23161;51.250;5.554;2022-10-31T15:36:51;12.40;;;6.57;;
37273;SDS011;23161;51.250;5.554;2022-10-31T15:39:17;23.67;;;7.75;;
37273;SDS011;23161;51.250;5.554;2022-10-31T15:41:51;7.80;;;6.30;;
37273;SDS011;23161;51.250;5.554;2022-10-31T15:44:20;15.77;;;6.38;;
37273;SDS011;23161;51.250;5.554;2022-10-31T15:46:58;14.57;;;7.53;;
37273;SDS011;23161;51.250;5.554;2022-10-31T15:54:53;7.60;;;5.35;;
37273;SDS011;23161;51.250;5.554;2022-10-31T15:57:21;8.48;;;6.40;;
37273;SDS011;23161;51.250;5.554;2022-10-31T15:59:48;8.77;;;5.90;;
37273;SDS011;23161;51.250;5.554;2022-10-31T16:02:18;5.97;;;5.10;;
37273;SDS011;23161;51.250;5.554;2022-10-31T16:04:50;7.68;;;6.68;;
37273;SDS011;23161;51.250;5.554;2022-10-31T16:07:19;10.63;;;5.40;;
37273;SDS011;23161;51.250;5.554;2022-10-31T16:09:48;6.85;;;5.20;;
37273;SDS011;23161;51.250;5.554;2022-10-31T16:12:16;12.27;;;6.20;;
37273;SDS011;23161;51.250;5.554;2022-10-31T16:14:42;9.00;;;6.88;;
37273;SDS011;23161;51.250;5.554;2022-10-31T16:17:12;5.80;;;4.70;;
37273;SDS011;23161;51.250;5.554;2022-10-31T16:22:22;9.77;;;5.50;;
37273;SDS011;23161;51.250;5.554;2022-10-31T16:27:27;8.25;;;6.45;;
37273;SDS011;23161;51.250;5.554;2022-10-31T16:29:56;9.18;;;5.32;;
37273;SDS011;23161;51.250;5.554;2022-10-31T16:35:23;7.93;;;4.45;;
37273;SDS011;23161;51.250;5.554;2022-10-31T16:37:50;10.27;;;6.10;;
37273;SDS011;23161;51.250;5.554;2022-10-31T16:40:16;18.80;;;8.07;;
37273;SDS011;23161;51.250;5.554;2022-10-31T16:42:43;12.88;;;5.63;;
37273;SDS011;23161;51.250;5.554;2022-10-31T16:45:15;11.68;;;4.97;;
37273;SDS011;23161;51.250;5.554;2022-10-31T16:47:43;9.55;;;5.38;;
37273;SDS011;23161;51.250;5.554;2022-10-31T16:50:13;8.82;;;5.05;;
37273;SDS011;23161;51.250;5.554;2022-10-31T16:52:41;7.45;;;5.25;;
37273;SDS011;23161;51.250;5.554;2022-10-31T16:55:11;12.25;;;6.75;;
37273;SDS011;23161;51.250;5.554;2022-10-31T16:57:38;8.65;;;6.05;;
37273;SDS011;23161;51.250;5.554;2022-10-31T17:00:11;8.95;;;5.22;;
37273;SDS011;23161;51.250;5.554;2022-10-31T17:02:46;12.85;;;5.43;;
37273;SDS011;23161;51.250;5.554;2022-10-31T17:05:15;14.73;;;6.43;;
37273;SDS011;23161;51.250;5.554;2022-10-31T17:07:43;7.22;;;5.32;;
37273;SDS011;23161;51.250;5.554;2022-10-31T17:10:10;14.35;;;5.43;;
37273;SDS011;23161;51.250;5.554;2022-10-31T17:12:38;7.38;;;6.70;;
37273;SDS011;23161;51.250;5.554;2022-10-31T17:15:10;7.32;;;4.72;;
37273;SDS011;23161;51.250;5.554;2022-10-31T17:17:43;6.57;;;5.70;;
37273;SDS011;23161;51.250;5.554;2022-10-31T17:20:25;7.75;;;5.18;;
37273;SDS011;23161;51.250;5.554;2022-10-31T17:22:53;14.90;;;6.80;;
37273;SDS011;23161;51.250;5.554;2022-10-31T17:25:21;9.65;;;5.55;;
37273;SDS011;23161;51.250;5.554;2022-10-31T17:27:48;6.13;;;4.72;;
37273;SDS011;23161;51.250;5.554;2022-10-31T17:30:15;6.47;;;5.80;;
37273;SDS011;23161;51.250;5.554;2022-10-31T17:32:43;12.10;;;5.78;;
37273;SDS011;23161;51.250;5.554;2022-10-31T17:35:09;8.48;;;5.80;;
37273;SDS011;23161;51.250;5.554;2022-10-31T17:37:37;13.13;;;6.38;;
37273;SDS011;23161;51.250;5.554;2022-10-31T17:40:03;9.13;;;5.72;;
37273;SDS011;23161;51.250;5.554;2022-10-31T17:42:29;13.00;;;5.28;;
37273;SDS011;23161;51.250;5.554;2022-10-31T17:44:55;8.77;;;5.70;;
37273;SDS011;23161;51.250;5.554;2022-10-31T17:47:20;8.77;;;6.50;;
37273;SDS011;23161;51.250;5.554;2022-10-31T17:49:46;12.55;;;5.15;;
37273;SDS011;23161;51.250;5.554;2022-10-31T17:52:12;11.00;;;5.95;;
37273;SDS011;23161;51.250;5.554;2022-10-31T17:54:38;5.78;;;5.05;;
37273;SDS011;23161;51.250;5.554;2022-10-31T17:57:03;17.60;;;7.18;;